Ashland, Nebraska
Current Conditions -  °F | °C
As of 11:55 AM on Friday 24 Oct 2014 (Local Time) from KMLE Reporting Station
Clear Clear  
Wind Chill: 69°   Ceiling: Unl
Heat Index: 69°   Visibility: 10mi
Dew Point: 60°   Wind: 8mph
Humidity: 74%   Direction: 260°W
Pressure: 29.93"   Gusts: NA
Location:  41.04°N, 96.37°W
Report Text: KMLE 241655Z AUTO 26007KT 10SM CLR 20/16 A2993 RMK AO2 T02040156
Loading
Personal Weather Stations






























Interactive Weather Map
Tropical Storm Tracking
New forecast layout! Learn more

10-Day Weather Forecast

Advertisements
Track Severe Weather on mobile